sensor_id;sensor_type;location;lat;lon;timestamp;P1;durP1;ratioP1;P2;durP2;ratioP2
7833;SDS011;3962;42.696;23.354;2022-07-23T00:00:10;49.83;;;24.70;;
7833;SDS011;3962;42.696;23.354;2022-07-23T00:02:37;57.07;;;25.70;;
7833;SDS011;3962;42.696;23.354;2022-07-23T00:05:04;38.57;;;22.30;;
7833;SDS011;3962;42.696;23.354;2022-07-23T00:07:31;30.87;;;17.93;;
7833;SDS011;3962;42.696;23.354;2022-07-23T00:09:59;27.67;;;16.23;;
7833;SDS011;3962;42.696;23.354;2022-07-23T00:12:26;24.47;;;14.53;;
7833;SDS011;3962;42.696;23.354;2022-07-23T00:14:53;24.63;;;14.50;;
7833;SDS011;3962;42.696;23.354;2022-07-23T00:17:19;23.67;;;13.37;;
7833;SDS011;3962;42.696;23.354;2022-07-23T00:19:46;29.23;;;14.90;;
7833;SDS011;3962;42.696;23.354;2022-07-23T00:22:13;19.07;;;10.67;;
7833;SDS011;3962;42.696;23.354;2022-07-23T00:24:40;18.93;;;13.10;;
7833;SDS011;3962;42.696;23.354;2022-07-23T00:27:08;19.30;;;11.77;;
7833;SDS011;3962;42.696;23.354;2022-07-23T00:29:35;17.13;;;10.90;;
7833;SDS011;3962;42.696;23.354;2022-07-23T00:32:02;14.60;;;10.50;;
7833;SDS011;3962;42.696;23.354;2022-07-23T00:34:29;14.17;;;10.20;;
7833;SDS011;3962;42.696;23.354;2022-07-23T00:36:55;14.53;;;9.73;;
7833;SDS011;3962;42.696;23.354;2022-07-23T00:39:22;13.27;;;9.50;;
7833;SDS011;3962;42.696;23.354;2022-07-23T00:41:49;16.87;;;9.37;;
7833;SDS011;3962;42.696;23.354;2022-07-23T00:44:19;12.60;;;9.00;;
7833;SDS011;3962;42.696;23.354;2022-07-23T00:46:48;12.40;;;8.43;;
7833;SDS011;3962;42.696;23.354;2022-07-23T00:49:18;11.47;;;8.17;;
7833;SDS011;3962;42.696;23.354;2022-07-23T00:51:45;11.83;;;8.33;;
7833;SDS011;3962;42.696;23.354;2022-07-23T00:54:12;12.33;;;7.53;;
7833;SDS011;3962;42.696;23.354;2022-07-23T00:56:39;11.57;;;7.03;;
7833;SDS011;3962;42.696;23.354;2022-07-23T00:59:08;11.63;;;7.60;;
7833;SDS011;3962;42.696;23.354;2022-07-23T01:01:37;11.37;;;7.70;;
7833;SDS011;3962;42.696;23.354;2022-07-23T01:04:05;14.37;;;7.63;;
7833;SDS011;3962;42.696;23.354;2022-07-23T01:06:32;17.17;;;7.77;;
7833;SDS011;3962;42.696;23.354;2022-07-23T01:09:02;11.03;;;7.57;;
7833;SDS011;3962;42.696;23.354;2022-07-23T01:11:31;12.73;;;7.13;;
7833;SDS011;3962;42.696;23.354;2022-07-23T01:13:59;13.60;;;7.53;;
7833;SDS011;3962;42.696;23.354;2022-07-23T01:16:25;9.97;;;7.23;;
7833;SDS011;3962;42.696;23.354;2022-07-23T01:18:54;8.87;;;7.40;;
7833;SDS011;3962;42.696;23.354;2022-07-23T01:21:20;11.77;;;8.03;;
7833;SDS011;3962;42.696;23.354;2022-07-23T01:23:49;11.30;;;7.60;;
7833;SDS011;3962;42.696;23.354;2022-07-23T01:26:16;9.83;;;7.70;;
7833;SDS011;3962;42.696;23.354;2022-07-23T01:28:42;13.17;;;7.47;;
7833;SDS011;3962;42.696;23.354;2022-07-23T01:31:09;10.63;;;7.40;;
7833;SDS011;3962;42.696;23.354;2022-07-23T01:33:36;12.63;;;7.60;;
7833;SDS011;3962;42.696;23.354;2022-07-23T01:36:03;10.80;;;7.90;;
7833;SDS011;3962;42.696;23.354;2022-07-23T01:38:30;12.67;;;8.30;;
7833;SDS011;3962;42.696;23.354;2022-07-23T01:40:59;10.60;;;7.73;;
7833;SDS011;3962;42.696;23.354;2022-07-23T01:43:25;10.83;;;8.00;;
7833;SDS011;3962;42.696;23.354;2022-07-23T01:45:52;9.63;;;7.83;;
7833;SDS011;3962;42.696;23.354;2022-07-23T01:48:19;14.83;;;7.60;;
7833;SDS011;3962;42.696;23.354;2022-07-23T01:50:46;13.40;;;8.17;;
7833;SDS011;3962;42.696;23.354;2022-07-23T01:53:13;10.90;;;7.70;;
7833;SDS011;3962;42.696;23.354;2022-07-23T01:55:40;14.73;;;7.90;;
7833;SDS011;3962;42.696;23.354;2022-07-23T01:58:08;17.87;;;8.70;;
7833;SDS011;3962;42.696;23.354;2022-07-23T02:00:35;11.53;;;8.43;;
7833;SDS011;3962;42.696;23.354;2022-07-23T02:03:02;13.20;;;8.73;;
7833;SDS011;3962;42.696;23.354;2022-07-23T02:05:29;14.60;;;8.07;;
7833;SDS011;3962;42.696;23.354;2022-07-23T02:07:57;12.77;;;7.97;;
7833;SDS011;3962;42.696;23.354;2022-07-23T02:10:24;14.97;;;8.17;;
7833;SDS011;3962;42.696;23.354;2022-07-23T02:12:51;15.60;;;8.53;;
7833;SDS011;3962;42.696;23.354;2022-07-23T02:15:19;15.27;;;8.40;;
7833;SDS011;3962;42.696;23.354;2022-07-23T02:17:46;14.80;;;10.20;;
7833;SDS011;3962;42.696;23.354;2022-07-23T02:20:13;19.30;;;12.60;;
7833;SDS011;3962;42.696;23.354;2022-07-23T02:22:40;28.20;;;16.00;;
7833;SDS011;3962;42.696;23.354;2022-07-23T02:25:07;29.17;;;16.83;;
7833;SDS011;3962;42.696;23.354;2022-07-23T02:27:34;30.50;;;19.50;;
7833;SDS011;3962;42.696;23.354;2022-07-23T02:30:01;31.77;;;20.30;;
7833;SDS011;3962;42.696;23.354;2022-07-23T02:32:31;28.67;;;19.13;;
7833;SDS011;3962;42.696;23.354;2022-07-23T02:34:58;30.27;;;18.87;;
7833;SDS011;3962;42.696;23.354;2022-07-23T02:37:25;32.20;;;19.90;;
7833;SDS011;3962;42.696;23.354;2022-07-23T02:39:51;27.77;;;19.60;;
7833;SDS011;3962;42.696;23.354;2022-07-23T02:42:18;31.90;;;19.60;;
7833;SDS011;3962;42.696;23.354;2022-07-23T02:44:45;31.60;;;18.33;;
7833;SDS011;3962;42.696;23.354;2022-07-23T02:47:12;29.43;;;16.63;;
7833;SDS011;3962;42.696;23.354;2022-07-23T02:49:40;23.73;;;15.53;;
7833;SDS011;3962;42.696;23.354;2022-07-23T02:52:07;22.27;;;14.97;;
7833;SDS011;3962;42.696;23.354;2022-07-23T02:54:35;28.97;;;15.27;;
7833;SDS011;3962;42.696;23.354;2022-07-23T02:57:02;20.00;;;14.10;;
7833;SDS011;3962;42.696;23.354;2022-07-23T02:59:29;25.03;;;14.67;;
7833;SDS011;3962;42.696;23.354;2022-07-23T03:01:56;22.40;;;13.17;;
7833;SDS011;3962;42.696;23.354;2022-07-23T03:04:23;22.77;;;13.70;;
7833;SDS011;3962;42.696;23.354;2022-07-23T03:06:51;23.93;;;13.90;;
7833;SDS011;3962;42.696;23.354;2022-07-23T03:09:18;18.30;;;12.07;;
7833;SDS011;3962;42.696;23.354;2022-07-23T03:11:45;20.23;;;13.13;;
7833;SDS011;3962;42.696;23.354;2022-07-23T03:14:11;16.63;;;12.50;;
7833;SDS011;3962;42.696;23.354;2022-07-23T03:16:39;18.17;;;12.07;;
7833;SDS011;3962;42.696;23.354;2022-07-23T03:19:06;20.37;;;11.60;;
7833;SDS011;3962;42.696;23.354;2022-07-23T03:21:33;20.20;;;11.67;;
7833;SDS011;3962;42.696;23.354;2022-07-23T03:24:05;16.83;;;10.87;;
7833;SDS011;3962;42.696;23.354;2022-07-23T03:26:32;14.80;;;10.17;;
7833;SDS011;3962;42.696;23.354;2022-07-23T03:28:59;15.50;;;10.93;;
7833;SDS011;3962;42.696;23.354;2022-07-23T03:31:26;21.43;;;10.73;;
7833;SDS011;3962;42.696;23.354;2022-07-23T03:33:53;15.50;;;10.37;;
7833;SDS011;3962;42.696;23.354;2022-07-23T03:36:20;17.83;;;10.77;;
7833;SDS011;3962;42.696;23.354;2022-07-23T03:38:46;15.83;;;10.97;;
7833;SDS011;3962;42.696;23.354;2022-07-23T03:41:14;16.67;;;11.60;;
7833;SDS011;3962;42.696;23.354;2022-07-23T03:43:41;16.93;;;11.03;;
7833;SDS011;3962;42.696;23.354;2022-07-23T03:46:08;15.73;;;10.77;;
7833;SDS011;3962;42.696;23.354;2022-07-23T03:48:35;18.27;;;11.47;;
7833;SDS011;3962;42.696;23.354;2022-07-23T03:51:02;16.33;;;11.40;;
7833;SDS011;3962;42.696;23.354;2022-07-23T03:53:29;19.87;;;12.00;;
7833;SDS011;3962;42.696;23.354;2022-07-23T03:55:56;19.07;;;11.40;;
7833;SDS011;3962;42.696;23.354;2022-07-23T03:58:24;16.87;;;11.80;;
7833;SDS011;3962;42.696;23.354;2022-07-23T04:00:51;17.10;;;11.30;;
7833;SDS011;3962;42.696;23.354;2022-07-23T04:03:17;17.70;;;11.47;;
7833;SDS011;3962;42.696;23.354;2022-07-23T04:05:44;16.60;;;11.43;;
7833;SDS011;3962;42.696;23.354;2022-07-23T04:08:11;20.97;;;11.27;;
7833;SDS011;3962;42.696;23.354;2022-07-23T04:10:37;16.37;;;10.13;;
7833;SDS011;3962;42.696;23.354;2022-07-23T04:13:04;18.63;;;10.40;;
7833;SDS011;3962;42.696;23.354;2022-07-23T04:15:32;23.43;;;11.03;;
7833;SDS011;3962;42.696;23.354;2022-07-23T04:17:59;22.07;;;14.93;;
7833;SDS011;3962;42.696;23.354;2022-07-23T04:20:26;25.23;;;15.07;;
7833;SDS011;3962;42.696;23.354;2022-07-23T04:22:53;20.03;;;12.17;;
7833;SDS011;3962;42.696;23.354;2022-07-23T04:25:19;16.47;;;10.27;;
7833;SDS011;3962;42.696;23.354;2022-07-23T04:27:46;18.50;;;9.57;;
7833;SDS011;3962;42.696;23.354;2022-07-23T04:30:13;14.53;;;10.20;;
7833;SDS011;3962;42.696;23.354;2022-07-23T04:32:41;19.93;;;11.00;;
7833;SDS011;3962;42.696;23.354;2022-07-23T04:35:08;18.37;;;11.63;;
7833;SDS011;3962;42.696;23.354;2022-07-23T04:37:35;18.27;;;11.43;;
7833;SDS011;3962;42.696;23.354;2022-07-23T04:40:02;19.07;;;12.27;;
7833;SDS011;3962;42.696;23.354;2022-07-23T04:42:29;18.23;;;11.90;;
7833;SDS011;3962;42.696;23.354;2022-07-23T04:44:56;21.43;;;11.83;;
7833;SDS011;3962;42.696;23.354;2022-07-23T04:47:22;20.90;;;12.67;;
7833;SDS011;3962;42.696;23.354;2022-07-23T04:49:51;21.07;;;12.93;;
7833;SDS011;3962;42.696;23.354;2022-07-23T04:52:17;22.27;;;13.23;;
7833;SDS011;3962;42.696;23.354;2022-07-23T04:54:44;20.03;;;12.83;;
7833;SDS011;3962;42.696;23.354;2022-07-23T04:57:11;28.63;;;13.63;;
7833;SDS011;3962;42.696;23.354;2022-07-23T04:59:38;25.67;;;14.03;;
7833;SDS011;3962;42.696;23.354;2022-07-23T05:02:04;26.97;;;14.37;;
7833;SDS011;3962;42.696;23.354;2022-07-23T05:04:31;28.90;;;18.00;;
7833;SDS011;3962;42.696;23.354;2022-07-23T05:06:59;21.17;;;13.73;;
7833;SDS011;3962;42.696;23.354;2022-07-23T05:09:26;22.43;;;14.20;;
7833;SDS011;3962;42.696;23.354;2022-07-23T05:11:53;23.90;;;13.10;;
7833;SDS011;3962;42.696;23.354;2022-07-23T05:14:20;30.00;;;12.77;;
7833;SDS011;3962;42.696;23.354;2022-07-23T05:16:47;27.27;;;14.77;;
7833;SDS011;3962;42.696;23.354;2022-07-23T05:19:13;34.63;;;21.63;;
7833;SDS011;3962;42.696;23.354;2022-07-23T05:21:40;20.87;;;14.20;;
7833;SDS011;3962;42.696;23.354;2022-07-23T05:24:08;25.17;;;13.53;;
7833;SDS011;3962;42.696;23.354;2022-07-23T05:26:35;16.83;;;13.33;;
7833;SDS011;3962;42.696;23.354;2022-07-23T05:29:02;22.77;;;12.97;;
7833;SDS011;3962;42.696;23.354;2022-07-23T05:31:29;18.70;;;11.93;;
7833;SDS011;3962;42.696;23.354;2022-07-23T05:33:56;20.90;;;12.87;;
7833;SDS011;3962;42.696;23.354;2022-07-23T05:36:23;17.70;;;12.97;;
7833;SDS011;3962;42.696;23.354;2022-07-23T05:38:50;22.07;;;13.50;;
7833;SDS011;3962;42.696;23.354;2022-07-23T05:41:18;22.33;;;13.90;;
7833;SDS011;3962;42.696;23.354;2022-07-23T05:43:45;25.87;;;13.20;;
7833;SDS011;3962;42.696;23.354;2022-07-23T05:46:11;22.77;;;13.47;;
7833;SDS011;3962;42.696;23.354;2022-07-23T05:48:38;20.50;;;12.33;;
7833;SDS011;3962;42.696;23.354;2022-07-23T05:51:05;22.03;;;12.30;;
7833;SDS011;3962;42.696;23.354;2022-07-23T05:53:32;21.20;;;12.70;;
7833;SDS011;3962;42.696;23.354;2022-07-23T05:55:59;23.67;;;12.70;;
7833;SDS011;3962;42.696;23.354;2022-07-23T05:58:27;21.37;;;12.03;;
7833;SDS011;3962;42.696;23.354;2022-07-23T06:00:54;17.47;;;11.60;;
7833;SDS011;3962;42.696;23.354;2022-07-23T06:03:21;17.80;;;11.70;;
7833;SDS011;3962;42.696;23.354;2022-07-23T06:05:47;15.33;;;11.17;;
7833;SDS011;3962;42.696;23.354;2022-07-23T06:08:14;14.87;;;10.47;;
7833;SDS011;3962;42.696;23.354;2022-07-23T06:10:41;18.67;;;10.50;;
7833;SDS011;3962;42.696;23.354;2022-07-23T06:13:08;15.13;;;10.23;;
7833;SDS011;3962;42.696;23.354;2022-07-23T06:15:36;20.33;;;9.40;;
7833;SDS011;3962;42.696;23.354;2022-07-23T06:18:03;14.47;;;10.67;;
7833;SDS011;3962;42.696;23.354;2022-07-23T06:20:30;18.70;;;9.60;;
7833;SDS011;3962;42.696;23.354;2022-07-23T06:22:57;21.07;;;10.13;;
7833;SDS011;3962;42.696;23.354;2022-07-23T06:25:24;20.63;;;9.50;;
7833;SDS011;3962;42.696;23.354;2022-07-23T06:27:50;15.13;;;9.63;;
7833;SDS011;3962;42.696;23.354;2022-07-23T06:30:17;15.10;;;9.30;;
7833;SDS011;3962;42.696;23.354;2022-07-23T06:32:45;13.73;;;9.27;;
7833;SDS011;3962;42.696;23.354;2022-07-23T06:35:12;18.67;;;9.00;;
7833;SDS011;3962;42.696;23.354;2022-07-23T06:37:39;14.33;;;9.07;;
7833;SDS011;3962;42.696;23.354;2022-07-23T06:40:06;15.87;;;9.57;;
7833;SDS011;3962;42.696;23.354;2022-07-23T06:42:34;15.70;;;8.87;;
7833;SDS011;3962;42.696;23.354;2022-07-23T06:45:02;16.83;;;9.10;;
7833;SDS011;3962;42.696;23.354;2022-07-23T06:47:29;14.93;;;8.67;;
7833;SDS011;3962;42.696;23.354;2022-07-23T06:49:57;14.67;;;8.20;;
7833;SDS011;3962;42.696;23.354;2022-07-23T06:52:24;15.67;;;8.47;;
7833;SDS011;3962;42.696;23.354;2022-07-23T06:54:51;16.07;;;8.57;;
7833;SDS011;3962;42.696;23.354;2022-07-23T06:57:18;13.87;;;8.57;;
7833;SDS011;3962;42.696;23.354;2022-07-23T06:59:44;12.50;;;8.20;;
7833;SDS011;3962;42.696;23.354;2022-07-23T07:02:11;15.10;;;7.73;;
7833;SDS011;3962;42.696;23.354;2022-07-23T07:04:38;15.33;;;8.57;;
7833;SDS011;3962;42.696;23.354;2022-07-23T07:07:06;14.80;;;8.70;;
7833;SDS011;3962;42.696;23.354;2022-07-23T07:09:33;18.73;;;9.00;;
7833;SDS011;3962;42.696;23.354;2022-07-23T07:12:00;15.17;;;8.30;;
7833;SDS011;3962;42.696;23.354;2022-07-23T07:14:27;14.30;;;8.53;;
7833;SDS011;3962;42.696;23.354;2022-07-23T07:16:53;14.93;;;8.43;;
7833;SDS011;3962;42.696;23.354;2022-07-23T07:19:20;16.70;;;8.53;;
7833;SDS011;3962;42.696;23.354;2022-07-23T07:21:47;16.70;;;8.03;;
7833;SDS011;3962;42.696;23.354;2022-07-23T07:24:15;13.47;;;9.13;;
7833;SDS011;3962;42.696;23.354;2022-07-23T07:26:42;16.97;;;9.30;;
7833;SDS011;3962;42.696;23.354;2022-07-23T07:29:09;20.70;;;9.57;;
7833;SDS011;3962;42.696;23.354;2022-07-23T07:31:36;17.93;;;9.00;;
7833;SDS011;3962;42.696;23.354;2022-07-23T07:34:03;14.87;;;8.77;;
7833;SDS011;3962;42.696;23.354;2022-07-23T07:36:30;12.20;;;8.33;;
7833;SDS011;3962;42.696;23.354;2022-07-23T07:38:57;15.43;;;8.50;;
7833;SDS011;3962;42.696;23.354;2022-07-23T07:41:26;12.37;;;8.23;;
7833;SDS011;3962;42.696;23.354;2022-07-23T07:43:52;15.63;;;8.27;;
7833;SDS011;3962;42.696;23.354;2022-07-23T07:46:19;10.70;;;8.47;;
7833;SDS011;3962;42.696;23.354;2022-07-23T07:48:49;18.47;;;9.60;;
7833;SDS011;3962;42.696;23.354;2022-07-23T07:51:16;17.97;;;9.33;;
7833;SDS011;3962;42.696;23.354;2022-07-23T07:53:43;16.00;;;8.30;;
7833;SDS011;3962;42.696;23.354;2022-07-23T07:56:09;15.63;;;8.97;;
7833;SDS011;3962;42.696;23.354;2022-07-23T07:58:38;18.83;;;9.10;;
7833;SDS011;3962;42.696;23.354;2022-07-23T08:01:04;14.97;;;8.70;;
7833;SDS011;3962;42.696;23.354;2022-07-23T08:03:31;16.40;;;8.57;;
7833;SDS011;3962;42.696;23.354;2022-07-23T08:05:58;14.90;;;8.77;;
7833;SDS011;3962;42.696;23.354;2022-07-23T08:08:25;12.83;;;8.47;;
7833;SDS011;3962;42.696;23.354;2022-07-23T08:10:52;18.50;;;9.13;;
7833;SDS011;3962;42.696;23.354;2022-07-23T08:13:18;17.47;;;9.13;;
7833;SDS011;3962;42.696;23.354;2022-07-23T08:15:47;16.97;;;8.27;;
7833;SDS011;3962;42.696;23.354;2022-07-23T08:18:13;17.50;;;8.60;;
7833;SDS011;3962;42.696;23.354;2022-07-23T08:20:40;13.90;;;7.67;;
7833;SDS011;3962;42.696;23.354;2022-07-23T08:23:07;17.47;;;8.67;;
7833;SDS011;3962;42.696;23.354;2022-07-23T08:25:35;12.97;;;8.00;;
7833;SDS011;3962;42.696;23.354;2022-07-23T08:28:04;12.57;;;8.03;;
7833;SDS011;3962;42.696;23.354;2022-07-23T08:30:33;10.47;;;7.57;;
7833;SDS011;3962;42.696;23.354;2022-07-23T08:33:02;12.63;;;8.10;;
7833;SDS011;3962;42.696;23.354;2022-07-23T08:35:33;11.63;;;7.73;;
7833;SDS011;3962;42.696;23.354;2022-07-23T08:38:02;14.33;;;7.33;;
7833;SDS011;3962;42.696;23.354;2022-07-23T08:40:30;12.73;;;7.93;;
7833;SDS011;3962;42.696;23.354;2022-07-23T08:42:59;13.20;;;7.70;;
7833;SDS011;3962;42.696;23.354;2022-07-23T08:45:29;14.23;;;7.83;;
7833;SDS011;3962;42.696;23.354;2022-07-23T08:47:57;13.40;;;7.73;;
7833;SDS011;3962;42.696;23.354;2022-07-23T08:50:26;9.53;;;7.47;;
7833;SDS011;3962;42.696;23.354;2022-07-23T08:52:53;11.23;;;7.83;;
7833;SDS011;3962;42.696;23.354;2022-07-23T08:55:22;8.73;;;7.20;;
7833;SDS011;3962;42.696;23.354;2022-07-23T08:57:49;13.48;;;7.97;;
7833;SDS011;3962;42.696;23.354;2022-07-23T09:00:17;10.68;;;7.68;;
7833;SDS011;3962;42.696;23.354;2022-07-23T09:02:45;10.00;;;7.13;;
7833;SDS011;3962;42.696;23.354;2022-07-23T09:05:13;11.88;;;7.90;;
7833;SDS011;3962;42.696;23.354;2022-07-23T09:10:45;10.10;;;6.80;;
7833;SDS011;3962;42.696;23.354;2022-07-23T09:13:23;13.05;;;7.50;;
7833;SDS011;3962;42.696;23.354;2022-07-23T09:15:52;13.95;;;7.35;;
7833;SDS011;3962;42.696;23.354;2022-07-23T09:18:27;12.23;;;8.35;;
7833;SDS011;3962;42.696;23.354;2022-07-23T09:21:04;23.33;;;13.75;;
7833;SDS011;3962;42.696;23.354;2022-07-23T09:23:37;11.07;;;7.72;;
7833;SDS011;3962;42.696;23.354;2022-07-23T09:26:19;33.13;;;9.13;;
7833;SDS011;3962;42.696;23.354;2022-07-23T09:28:49;12.15;;;7.38;;
7833;SDS011;3962;42.696;23.354;2022-07-23T09:31:18;10.52;;;7.03;;
7833;SDS011;3962;42.696;23.354;2022-07-23T09:33:45;9.70;;;6.45;;
7833;SDS011;3962;42.696;23.354;2022-07-23T09:36:12;10.20;;;7.25;;
7833;SDS011;3962;42.696;23.354;2022-07-23T09:38:48;12.77;;;7.20;;
7833;SDS011;3962;42.696;23.354;2022-07-23T09:41:16;17.80;;;7.70;;
7833;SDS011;3962;42.696;23.354;2022-07-23T09:43:43;12.23;;;7.53;;
7833;SDS011;3962;42.696;23.354;2022-07-23T09:46:17;10.38;;;7.13;;
7833;SDS011;3962;42.696;23.354;2022-07-23T09:48:45;14.57;;;7.38;;
7833;SDS011;3962;42.696;23.354;2022-07-23T09:51:12;11.60;;;6.53;;
7833;SDS011;3962;42.696;23.354;2022-07-23T09:53:39;12.90;;;7.80;;
7833;SDS011;3962;42.696;23.354;2022-07-23T09:56:07;10.07;;;6.47;;
7833;SDS011;3962;42.696;23.354;2022-07-23T09:58:35;14.82;;;6.80;;
7833;SDS011;3962;42.696;23.354;2022-07-23T10:01:10;9.13;;;6.40;;
7833;SDS011;3962;42.696;23.354;2022-07-23T10:03:39;9.80;;;6.68;;
7833;SDS011;3962;42.696;23.354;2022-07-23T10:06:07;8.90;;;6.60;;
7833;SDS011;3962;42.696;23.354;2022-07-23T10:08:35;11.13;;;6.40;;
7833;SDS011;3962;42.696;23.354;2022-07-23T10:11:02;15.18;;;7.18;;
7833;SDS011;3962;42.696;23.354;2022-07-23T10:13:31;10.13;;;6.65;;
7833;SDS011;3962;42.696;23.354;2022-07-23T10:16:20;10.63;;;7.00;;
7833;SDS011;3962;42.696;23.354;2022-07-23T10:18:48;13.60;;;7.88;;
7833;SDS011;3962;42.696;23.354;2022-07-23T10:21:16;10.75;;;7.05;;
7833;SDS011;3962;42.696;23.354;2022-07-23T10:23:51;13.25;;;6.28;;
7833;SDS011;3962;42.696;23.354;2022-07-23T10:26:32;8.40;;;6.32;;
7833;SDS011;3962;42.696;23.354;2022-07-23T10:29:12;14.90;;;6.47;;
7833;SDS011;3962;42.696;23.354;2022-07-23T10:31:51;12.35;;;6.65;;
7833;SDS011;3962;42.696;23.354;2022-07-23T10:34:25;9.48;;;5.60;;
7833;SDS011;3962;42.696;23.354;2022-07-23T10:37:04;11.27;;;6.57;;
7833;SDS011;3962;42.696;23.354;2022-07-23T10:39:39;9.30;;;6.38;;
7833;SDS011;3962;42.696;23.354;2022-07-23T10:42:09;11.82;;;6.30;;
7833;SDS011;3962;42.696;23.354;2022-07-23T10:44:42;16.35;;;5.97;;
7833;SDS011;3962;42.696;23.354;2022-07-23T10:47:11;12.48;;;6.38;;
7833;SDS011;3962;42.696;23.354;2022-07-23T10:49:50;8.68;;;6.28;;
7833;SDS011;3962;42.696;23.354;2022-07-23T10:52:17;8.55;;;6.15;;
7833;SDS011;3962;42.696;23.354;2022-07-23T10:54:46;8.05;;;5.70;;
7833;SDS011;3962;42.696;23.354;2022-07-23T10:57:15;10.80;;;6.38;;
7833;SDS011;3962;42.696;23.354;2022-07-23T11:02:57;11.90;;;6.75;;
7833;SDS011;3962;42.696;23.354;2022-07-23T11:05:25;12.48;;;6.18;;
7833;SDS011;3962;42.696;23.354;2022-07-23T11:08:15;10.13;;;6.30;;
7833;SDS011;3962;42.696;23.354;2022-07-23T11:10:45;14.18;;;6.35;;
7833;SDS011;3962;42.696;23.354;2022-07-23T11:13:27;10.80;;;6.82;;
7833;SDS011;3962;42.696;23.354;2022-07-23T11:18:55;13.52;;;6.60;;
7833;SDS011;3962;42.696;23.354;2022-07-23T11:21:42;13.38;;;6.32;;
7833;SDS011;3962;42.696;23.354;2022-07-23T11:24:11;10.70;;;5.78;;
7833;SDS011;3962;42.696;23.354;2022-07-23T11:26:43;14.18;;;6.22;;
7833;SDS011;3962;42.696;23.354;2022-07-23T11:32:23;19.48;;;5.88;;
7833;SDS011;3962;42.696;23.354;2022-07-23T11:34:54;14.98;;;6.72;;
7833;SDS011;3962;42.696;23.354;2022-07-23T11:40:10;15.23;;;6.25;;
7833;SDS011;3962;42.696;23.354;2022-07-23T11:42:38;16.60;;;6.50;;
7833;SDS011;3962;42.696;23.354;2022-07-23T11:45:06;15.68;;;6.03;;
7833;SDS011;3962;42.696;23.354;2022-07-23T11:47:35;14.32;;;6.45;;
7833;SDS011;3962;42.696;23.354;2022-07-23T11:50:04;26.88;;;6.68;;
7833;SDS011;3962;42.696;23.354;2022-07-23T11:52:32;35.30;;;7.15;;
7833;SDS011;3962;42.696;23.354;2022-07-23T11:55:00;12.32;;;6.07;;
7833;SDS011;3962;42.696;23.354;2022-07-23T11:57:28;14.48;;;5.97;;
7833;SDS011;3962;42.696;23.354;2022-07-23T11:59:57;16.42;;;6.72;;
7833;SDS011;3962;42.696;23.354;2022-07-23T12:02:27;12.20;;;5.72;;
7833;SDS011;3962;42.696;23.354;2022-07-23T12:04:54;11.32;;;6.03;;
7833;SDS011;3962;42.696;23.354;2022-07-23T12:07:29;11.75;;;5.78;;
7833;SDS011;3962;42.696;23.354;2022-07-23T12:09:59;14.85;;;6.05;;
7833;SDS011;3962;42.696;23.354;2022-07-23T12:12:34;16.42;;;5.78;;
7833;SDS011;3962;42.696;23.354;2022-07-23T12:15:02;15.60;;;5.80;;
7833;SDS011;3962;42.696;23.354;2022-07-23T12:17:30;13.95;;;5.70;;
7833;SDS011;3962;42.696;23.354;2022-07-23T12:19:58;13.57;;;6.05;;
7833;SDS011;3962;42.696;23.354;2022-07-23T12:22:33;12.77;;;5.55;;
7833;SDS011;3962;42.696;23.354;2022-07-23T12:25:03;19.15;;;5.63;;
7833;SDS011;3962;42.696;23.354;2022-07-23T12:27:32;10.98;;;5.40;;
7833;SDS011;3962;42.696;23.354;2022-07-23T12:29:59;17.83;;;5.90;;
7833;SDS011;3962;42.696;23.354;2022-07-23T12:32:43;13.27;;;5.80;;
7833;SDS011;3962;42.696;23.354;2022-07-23T12:35:11;14.55;;;5.90;;
7833;SDS011;3962;42.696;23.354;2022-07-23T12:37:41;14.75;;;6.05;;
7833;SDS011;3962;42.696;23.354;2022-07-23T12:40:22;14.80;;;5.30;;
7833;SDS011;3962;42.696;23.354;2022-07-23T12:42:51;13.60;;;5.90;;
7833;SDS011;3962;42.696;23.354;2022-07-23T12:45:19;12.68;;;6.05;;
7833;SDS011;3962;42.696;23.354;2022-07-23T12:47:50;20.92;;;6.40;;
7833;SDS011;3962;42.696;23.354;2022-07-23T12:53:17;13.57;;;5.97;;
7833;SDS011;3962;42.696;23.354;2022-07-23T12:55:45;16.00;;;5.25;;
7833;SDS011;3962;42.696;23.354;2022-07-23T12:58:14;17.95;;;6.25;;
7833;SDS011;3962;42.696;23.354;2022-07-23T13:00:53;16.60;;;5.93;;
7833;SDS011;3962;42.696;23.354;2022-07-23T13:03:22;13.70;;;6.47;;
7833;SDS011;3962;42.696;23.354;2022-07-23T13:05:50;15.82;;;5.22;;
7833;SDS011;3962;42.696;23.354;2022-07-23T13:08:19;13.20;;;5.30;;
7833;SDS011;3962;42.696;23.354;2022-07-23T13:10:46;14.32;;;5.78;;
7833;SDS011;3962;42.696;23.354;2022-07-23T13:13:14;12.98;;;5.22;;
7833;SDS011;3962;42.696;23.354;2022-07-23T13:15:42;16.70;;;5.93;;
7833;SDS011;3962;42.696;23.354;2022-07-23T13:18:09;17.35;;;5.93;;
7833;SDS011;3962;42.696;23.354;2022-07-23T13:20:35;12.07;;;5.38;;
7833;SDS011;3962;42.696;23.354;2022-07-23T13:23:04;15.05;;;5.93;;
7833;SDS011;3962;42.696;23.354;2022-07-23T13:25:32;13.68;;;5.75;;
7833;SDS011;3962;42.696;23.354;2022-07-23T13:27:59;13.90;;;5.03;;
7833;SDS011;3962;42.696;23.354;2022-07-23T13:30:26;14.48;;;5.68;;
7833;SDS011;3962;42.696;23.354;2022-07-23T13:32:53;14.15;;;5.50;;
7833;SDS011;3962;42.696;23.354;2022-07-23T13:35:20;15.68;;;5.80;;
7833;SDS011;3962;42.696;23.354;2022-07-23T13:37:47;18.77;;;5.63;;
7833;SDS011;3962;42.696;23.354;2022-07-23T13:40:14;16.17;;;5.57;;
7833;SDS011;3962;42.696;23.354;2022-07-23T13:42:42;15.52;;;5.35;;
7833;SDS011;3962;42.696;23.354;2022-07-23T13:45:09;17.95;;;5.82;;
7833;SDS011;3962;42.696;23.354;2022-07-23T13:47:36;20.10;;;6.47;;
7833;SDS011;3962;42.696;23.354;2022-07-23T13:50:03;18.77;;;5.82;;
7833;SDS011;3962;42.696;23.354;2022-07-23T13:52:31;16.55;;;5.70;;
7833;SDS011;3962;42.696;23.354;2022-07-23T13:54:59;12.80;;;5.45;;
7833;SDS011;3962;42.696;23.354;2022-07-23T13:57:26;11.40;;;4.88;;
7833;SDS011;3962;42.696;23.354;2022-07-23T13:59:54;13.93;;;5.20;;
7833;SDS011;3962;42.696;23.354;2022-07-23T14:02:21;10.13;;;5.07;;
7833;SDS011;3962;42.696;23.354;2022-07-23T14:04:48;14.30;;;5.40;;
7833;SDS011;3962;42.696;23.354;2022-07-23T14:07:15;11.95;;;5.03;;
7833;SDS011;3962;42.696;23.354;2022-07-23T14:09:42;11.98;;;5.38;;
7833;SDS011;3962;42.696;23.354;2022-07-23T14:12:09;13.93;;;5.40;;
7833;SDS011;3962;42.696;23.354;2022-07-23T14:14:36;14.85;;;5.38;;
7833;SDS011;3962;42.696;23.354;2022-07-23T14:17:05;13.48;;;5.15;;
7833;SDS011;3962;42.696;23.354;2022-07-23T14:19:31;14.25;;;5.90;;
7833;SDS011;3962;42.696;23.354;2022-07-23T14:21:58;10.52;;;5.38;;
7833;SDS011;3962;42.696;23.354;2022-07-23T14:24:25;10.98;;;5.30;;
7833;SDS011;3962;42.696;23.354;2022-07-23T14:26:52;13.77;;;5.55;;
7833;SDS011;3962;42.696;23.354;2022-07-23T14:29:19;14.73;;;6.28;;
7833;SDS011;3962;42.696;23.354;2022-07-23T14:31:45;13.90;;;5.85;;
7833;SDS011;3962;42.696;23.354;2022-07-23T14:34:14;14.90;;;6.22;;
7833;SDS011;3962;42.696;23.354;2022-07-23T14:36:41;14.18;;;5.78;;
7833;SDS011;3962;42.696;23.354;2022-07-23T14:39:08;14.15;;;5.65;;
7833;SDS011;3962;42.696;23.354;2022-07-23T14:41:36;12.23;;;5.40;;
7833;SDS011;3962;42.696;23.354;2022-07-23T14:44:04;13.85;;;5.35;;
7833;SDS011;3962;42.696;23.354;2022-07-23T14:46:31;20.00;;;5.18;;
7833;SDS011;3962;42.696;23.354;2022-07-23T14:48:58;12.60;;;5.35;;
7833;SDS011;3962;42.696;23.354;2022-07-23T14:51:26;14.90;;;6.30;;
7833;SDS011;3962;42.696;23.354;2022-07-23T14:53:53;11.95;;;5.50;;
7833;SDS011;3962;42.696;23.354;2022-07-23T14:56:19;14.77;;;5.90;;
7833;SDS011;3962;42.696;23.354;2022-07-23T14:58:46;10.98;;;5.07;;
7833;SDS011;3962;42.696;23.354;2022-07-23T15:01:13;14.07;;;5.28;;
7833;SDS011;3962;42.696;23.354;2022-07-23T15:03:40;10.88;;;5.28;;
7833;SDS011;3962;42.696;23.354;2022-07-23T15:06:07;14.63;;;5.50;;